KPTS/PTS METAR and TAF weather

Enter ICAO airport designator
Station Type Date Time Source
KPTS METAR 2019/02/23 00:35 UTC NOAA

KPTS 230035Z AUTO 10008KT 7SM OVC006 05/05 A2999 RMK AO2 T00500045


Station Type Date Time Source
KPTS Decoded METAR 2019/02/23 00:35 UTC NOAA

Station name not available
Feb 22, 2019 - 07:35 PM EST / 2019.02.23 0035 UTC
Wind: from the E (100 degrees) at 9 MPH (8 KT):0
Visibility: 7 mile(s):0
Sky conditions: overcast
Temperature: 41.0 F (5.0 C)
Dew Point: 40.1 F (4.5 C)
Relative Humidity: 96%
Pressure (altimeter): 29.99 in. Hg (1015 hPa)
ob: KPTS 230035Z AUTO 10008KT 7SM OVC006 05/05 A2999 RMK AO2 T00500045
cycle: 0

Station Type Date Time Source
KPTS TAF UTC NOAA

Error!


Example: see airport list